sensor_id;sensor_type;location;lat;lon;timestamp;temperature;humidity
29007;DHT22;16104;48.642;9.008;2024-02-15T00:00:26;13.60;64.40
29007;DHT22;16104;48.642;9.008;2024-02-15T00:05:22;13.50;64.30
29007;DHT22;16104;48.642;9.008;2024-02-15T00:10:19;13.50;64.30
29007;DHT22;16104;48.642;9.008;2024-02-15T00:15:16;13.50;64.40
29007;DHT22;16104;48.642;9.008;2024-02-15T00:20:12;13.40;64.30
29007;DHT22;16104;48.642;9.008;2024-02-15T00:25:08;13.40;64.40
29007;DHT22;16104;48.642;9.008;2024-02-15T00:30:04;13.40;64.60
29007;DHT22;16104;48.642;9.008;2024-02-15T00:35:03;13.40;64.60
29007;DHT22;16104;48.642;9.008;2024-02-15T00:40:03;13.40;64.70
29007;DHT22;16104;48.642;9.008;2024-02-15T00:44:59;13.30;64.60
29007;DHT22;16104;48.642;9.008;2024-02-15T00:49:54;13.30;64.80
29007;DHT22;16104;48.642;9.008;2024-02-15T00:54:50;13.30;64.90
29007;DHT22;16104;48.642;9.008;2024-02-15T00:59:46;13.30;64.90
29007;DHT22;16104;48.642;9.008;2024-02-15T05:00:33;10.70;68.50
29007;DHT22;16104;48.642;9.008;2024-02-15T05:05:29;10.70;68.20
29007;DHT22;16104;48.642;9.008;2024-02-15T05:10:24;10.70;68.20
29007;DHT22;16104;48.642;9.008;2024-02-15T05:15:20;10.70;68.20
29007;DHT22;16104;48.642;9.008;2024-02-15T05:20:20;10.70;68.40
29007;DHT22;16104;48.642;9.008;2024-02-15T05:25:16;10.60;68.30
29007;DHT22;16104;48.642;9.008;2024-02-15T05:30:17;10.60;68.20
29007;DHT22;16104;48.642;9.008;2024-02-15T05:35:13;10.60;68.20
29007;DHT22;16104;48.642;9.008;2024-02-15T05:40:10;10.60;69.10
29007;DHT22;16104;48.642;9.008;2024-02-15T05:50:21;10.50;68.60
29007;DHT22;16104;48.642;9.008;2024-02-15T05:55:18;10.50;68.30
29007;DHT22;16104;48.642;9.008;2024-02-15T06:00:14;10.50;68.30
29007;DHT22;16104;48.642;9.008;2024-02-15T06:05:14;10.50;68.30
29007;DHT22;16104;48.642;9.008;2024-02-15T06:10:12;10.40;68.30
29007;DHT22;16104;48.642;9.008;2024-02-15T06:15:09;10.40;68.40
29007;DHT22;16104;48.642;9.008;2024-02-15T06:20:14;10.40;68.50
29007;DHT22;16104;48.642;9.008;2024-02-15T06:25:10;10.40;68.60
29007;DHT22;16104;48.642;9.008;2024-02-15T06:30:07;10.40;68.50
29007;DHT22;16104;48.642;9.008;2024-02-15T06:35:21;10.30;68.50
29007;DHT22;16104;48.642;9.008;2024-02-15T06:40:35;10.30;68.50
29007;DHT22;16104;48.642;9.008;2024-02-15T06:45:31;10.30;68.40
29007;DHT22;16104;48.642;9.008;2024-02-15T06:50:27;10.30;68.50
29007;DHT22;16104;48.642;9.008;2024-02-15T06:55:23;10.30;68.60
29007;DHT22;16104;48.642;9.008;2024-02-15T07:00:18;10.30;68.70
29007;DHT22;16104;48.642;9.008;2024-02-15T07:05:14;10.30;68.80
29007;DHT22;16104;48.642;9.008;2024-02-15T07:10:12;10.30;68.90
29007;DHT22;16104;48.642;9.008;2024-02-15T07:15:08;10.40;69.00
29007;DHT22;16104;48.642;9.008;2024-02-15T07:20:05;10.40;69.00
29007;DHT22;16104;48.642;9.008;2024-02-15T07:25:01;10.40;69.00
29007;DHT22;16104;48.642;9.008;2024-02-15T07:29:56;10.50;69.10
29007;DHT22;16104;48.642;9.008;2024-02-15T07:34:52;10.50;69.10
29007;DHT22;16104;48.642;9.008;2024-02-15T07:39:47;10.60;69.20
29007;DHT22;16104;48.642;9.008;2024-02-15T07:44:43;10.70;69.30
29007;DHT22;16104;48.642;9.008;2024-02-15T07:49:38;10.70;69.30
29007;DHT22;16104;48.642;9.008;2024-02-15T07:54:33;10.80;69.40
29007;DHT22;16104;48.642;9.008;2024-02-15T07:59:29;10.90;69.50
29007;DHT22;16104;48.642;9.008;2024-02-15T08:04:25;11.00;69.50
29007;DHT22;16104;48.642;9.008;2024-02-15T08:09:21;11.20;69.60
29007;DHT22;16104;48.642;9.008;2024-02-15T08:14:19;11.30;69.60
29007;DHT22;16104;48.642;9.008;2024-02-15T08:19:15;11.40;69.50
29007;DHT22;16104;48.642;9.008;2024-02-15T08:24:12;11.50;69.40
29007;DHT22;16104;48.642;9.008;2024-02-15T08:29:08;11.60;69.20
29007;DHT22;16104;48.642;9.008;2024-02-15T08:34:09;11.80;69.00
29007;DHT22;16104;48.642;9.008;2024-02-15T08:39:08;11.90;68.80
29007;DHT22;16104;48.642;9.008;2024-02-15T08:44:07;12.00;68.60
29007;DHT22;16104;48.642;9.008;2024-02-15T08:49:06;12.10;68.60
29007;DHT22;16104;48.642;9.008;2024-02-15T08:54:02;12.20;68.40
29007;DHT22;16104;48.642;9.008;2024-02-15T08:58:58;12.30;68.20
29007;DHT22;16104;48.642;9.008;2024-02-15T09:03:53;12.30;68.00
29007;DHT22;16104;48.642;9.008;2024-02-15T09:08:49;12.40;67.80
29007;DHT22;16104;48.642;9.008;2024-02-15T09:13:44;12.50;67.80
29007;DHT22;16104;48.642;9.008;2024-02-15T09:18:40;12.70;67.80
29007;DHT22;16104;48.642;9.008;2024-02-15T09:23:40;12.80;67.60
29007;DHT22;16104;48.642;9.008;2024-02-15T09:28:36;12.90;67.30
29007;DHT22;16104;48.642;9.008;2024-02-15T09:33:31;13.10;67.20
29007;DHT22;16104;48.642;9.008;2024-02-15T09:38:27;13.20;67.10
29007;DHT22;16104;48.642;9.008;2024-02-15T09:43:22;13.40;66.60
29007;DHT22;16104;48.642;9.008;2024-02-15T09:48:24;13.50;66.40
29007;DHT22;16104;48.642;9.008;2024-02-15T09:53:21;13.60;66.00
29007;DHT22;16104;48.642;9.008;2024-02-15T09:58:21;13.80;65.60
29007;DHT22;16104;48.642;9.008;2024-02-15T10:03:20;14.00;65.50
29007;DHT22;16104;48.642;9.008;2024-02-15T10:08:16;14.10;65.10
29007;DHT22;16104;48.642;9.008;2024-02-15T10:13:14;14.30;64.80
29007;DHT22;16104;48.642;9.008;2024-02-15T10:18:10;14.50;65.00
29007;DHT22;16104;48.642;9.008;2024-02-15T10:28:08;14.90;64.30
29007;DHT22;16104;48.642;9.008;2024-02-15T10:33:04;15.10;63.50
29007;DHT22;16104;48.642;9.008;2024-02-15T10:38:10;15.30;63.30
29007;DHT22;16104;48.642;9.008;2024-02-15T10:43:06;15.50;62.50
29007;DHT22;16104;48.642;9.008;2024-02-15T10:48:01;15.70;62.40
29007;DHT22;16104;48.642;9.008;2024-02-15T10:52:59;15.90;61.80
29007;DHT22;16104;48.642;9.008;2024-02-15T10:58:01;16.10;61.50
29007;DHT22;16104;48.642;9.008;2024-02-15T11:03:03;16.40;60.60
29007;DHT22;16104;48.642;9.008;2024-02-15T11:08:05;16.60;59.90
29007;DHT22;16104;48.642;9.008;2024-02-15T11:13:02;16.80;59.80
29007;DHT22;16104;48.642;9.008;2024-02-15T11:17:58;17.00;59.40
29007;DHT22;16104;48.642;9.008;2024-02-15T11:22:57;17.30;59.60
29007;DHT22;16104;48.642;9.008;2024-02-15T11:27:55;17.50;58.20
29007;DHT22;16104;48.642;9.008;2024-02-15T11:32:50;17.80;58.40
29007;DHT22;16104;48.642;9.008;2024-02-15T11:43:00;18.40;56.70
29007;DHT22;16104;48.642;9.008;2024-02-15T11:47:56;18.50;55.60
29007;DHT22;16104;48.642;9.008;2024-02-15T11:52:52;18.70;55.30
29007;DHT22;16104;48.642;9.008;2024-02-15T11:57:57;18.90;55.00
29007;DHT22;16104;48.642;9.008;2024-02-15T12:03:04;19.10;53.70
29007;DHT22;16104;48.642;9.008;2024-02-15T12:08:19;19.20;53.80
29007;DHT22;16104;48.642;9.008;2024-02-15T12:13:33;19.40;53.20
29007;DHT22;16104;48.642;9.008;2024-02-15T12:18:48;19.60;52.60
29007;DHT22;16104;48.642;9.008;2024-02-15T12:23:47;19.60;52.40
29007;DHT22;16104;48.642;9.008;2024-02-15T12:28:43;19.80;52.50
29007;DHT22;16104;48.642;9.008;2024-02-15T12:33:38;19.90;52.00
29007;DHT22;16104;48.642;9.008;2024-02-15T12:38:35;20.10;51.50
29007;DHT22;16104;48.642;9.008;2024-02-15T12:43:33;20.20;51.70
29007;DHT22;16104;48.642;9.008;2024-02-15T12:48:28;20.30;51.50
29007;DHT22;16104;48.642;9.008;2024-02-15T12:53:24;20.40;51.00
29007;DHT22;16104;48.642;9.008;2024-02-15T12:58:19;20.60;51.60
29007;DHT22;16104;48.642;9.008;2024-02-15T13:03:15;20.70;51.10
29007;DHT22;16104;48.642;9.008;2024-02-15T13:08:11;20.80;50.60
29007;DHT22;16104;48.642;9.008;2024-02-15T13:13:08;21.00;50.40
29007;DHT22;16104;48.642;9.008;2024-02-15T13:18:04;21.00;50.00
29007;DHT22;16104;48.642;9.008;2024-02-15T13:23:02;21.10;50.00
29007;DHT22;16104;48.642;9.008;2024-02-15T13:28:04;21.10;50.00
29007;DHT22;16104;48.642;9.008;2024-02-15T13:32:59;21.30;50.40
29007;DHT22;16104;48.642;9.008;2024-02-15T13:37:55;21.30;49.60
29007;DHT22;16104;48.642;9.008;2024-02-15T13:42:55;21.40;48.60
29007;DHT22;16104;48.642;9.008;2024-02-15T13:47:53;21.50;49.10
29007;DHT22;16104;48.642;9.008;2024-02-15T13:52:49;21.40;48.90
29007;DHT22;16104;48.642;9.008;2024-02-15T13:57:45;21.40;48.30
29007;DHT22;16104;48.642;9.008;2024-02-15T14:02:44;21.30;48.40
29007;DHT22;16104;48.642;9.008;2024-02-15T14:07:39;21.20;48.60
29007;DHT22;16104;48.642;9.008;2024-02-15T14:12:38;21.10;48.70
29007;DHT22;16104;48.642;9.008;2024-02-15T14:17:33;21.10;48.90
29007;DHT22;16104;48.642;9.008;2024-02-15T14:22:29;21.00;49.10
29007;DHT22;16104;48.642;9.008;2024-02-15T14:27:24;21.10;48.60
29007;DHT22;16104;48.642;9.008;2024-02-15T14:32:20;21.10;48.50
29007;DHT22;16104;48.642;9.008;2024-02-15T14:37:34;21.10;48.80
29007;DHT22;16104;48.642;9.008;2024-02-15T14:42:30;21.20;48.90
29007;DHT22;16104;48.642;9.008;2024-02-15T14:47:25;21.30;48.60
29007;DHT22;16104;48.642;9.008;2024-02-15T14:52:21;21.30;48.70
29007;DHT22;16104;48.642;9.008;2024-02-15T14:57:16;21.30;48.70
29007;DHT22;16104;48.642;9.008;2024-02-15T15:02:11;21.30;48.30
29007;DHT22;16104;48.642;9.008;2024-02-15T15:07:07;21.30;48.30
29007;DHT22;16104;48.642;9.008;2024-02-15T15:12:35;21.30;48.60
29007;DHT22;16104;48.642;9.008;2024-02-15T15:17:34;21.30;47.90
29007;DHT22;16104;48.642;9.008;2024-02-15T15:22:31;21.10;47.80
29007;DHT22;16104;48.642;9.008;2024-02-15T15:27:29;21.10;48.20
29007;DHT22;16104;48.642;9.008;2024-02-15T15:32:25;21.00;47.70
29007;DHT22;16104;48.642;9.008;2024-02-15T15:37:22;20.80;48.10
29007;DHT22;16104;48.642;9.008;2024-02-15T15:42:18;20.70;47.70
29007;DHT22;16104;48.642;9.008;2024-02-15T15:47:14;20.60;47.90
29007;DHT22;16104;48.642;9.008;2024-02-15T15:52:10;20.50;48.10
29007;DHT22;16104;48.642;9.008;2024-02-15T15:57:06;20.40;48.10
29007;DHT22;16104;48.642;9.008;2024-02-15T16:02:02;20.20;48.20
29007;DHT22;16104;48.642;9.008;2024-02-15T16:07:00;20.10;48.70
29007;DHT22;16104;48.642;9.008;2024-02-15T16:11:55;20.00;48.60
29007;DHT22;16104;48.642;9.008;2024-02-15T16:16:52;19.80;48.80
29007;DHT22;16104;48.642;9.008;2024-02-15T16:21:47;19.70;49.20
29007;DHT22;16104;48.642;9.008;2024-02-15T16:26:42;19.60;49.40
29007;DHT22;16104;48.642;9.008;2024-02-15T16:31:38;19.40;49.40
29007;DHT22;16104;48.642;9.008;2024-02-15T16:36:33;19.30;49.70
29007;DHT22;16104;48.642;9.008;2024-02-15T16:41:29;19.10;50.00
29007;DHT22;16104;48.642;9.008;2024-02-15T16:46:25;19.00;50.20
29007;DHT22;16104;48.642;9.008;2024-02-15T16:51:21;18.90;50.30
29007;DHT22;16104;48.642;9.008;2024-02-15T16:56:22;18.80;50.50
29007;DHT22;16104;48.642;9.008;2024-02-15T17:01:21;18.60;50.60
29007;DHT22;16104;48.642;9.008;2024-02-15T17:06:17;18.50;50.90
29007;DHT22;16104;48.642;9.008;2024-02-15T17:11:12;18.40;51.10
29007;DHT22;16104;48.642;9.008;2024-02-15T17:16:08;18.20;51.20
29007;DHT22;16104;48.642;9.008;2024-02-15T17:21:04;18.10;51.50
29007;DHT22;16104;48.642;9.008;2024-02-15T17:26:06;18.00;51.70
29007;DHT22;16104;48.642;9.008;2024-02-15T17:31:01;17.90;51.90
29007;DHT22;16104;48.642;9.008;2024-02-15T17:35:59;17.80;52.10
29007;DHT22;16104;48.642;9.008;2024-02-15T17:40:57;17.70;52.40
29007;DHT22;16104;48.642;9.008;2024-02-15T17:45:53;17.60;52.40
29007;DHT22;16104;48.642;9.008;2024-02-15T17:50:49;17.50;52.70
29007;DHT22;16104;48.642;9.008;2024-02-15T17:55:47;17.40;52.90
29007;DHT22;16104;48.642;9.008;2024-02-15T18:00:45;17.30;53.00
29007;DHT22;16104;48.642;9.008;2024-02-15T18:05:41;17.20;53.20
29007;DHT22;16104;48.642;9.008;2024-02-15T18:10:41;17.10;53.10
29007;DHT22;16104;48.642;9.008;2024-02-15T18:15:37;17.00;53.40
29007;DHT22;16104;48.642;9.008;2024-02-15T18:20:34;16.90;53.60
29007;DHT22;16104;48.642;9.008;2024-02-15T18:25:30;16.80;53.70
29007;DHT22;16104;48.642;9.008;2024-02-15T18:30:25;16.70;53.80
29007;DHT22;16104;48.642;9.008;2024-02-15T18:35:27;16.60;53.90
29007;DHT22;16104;48.642;9.008;2024-02-15T18:40:24;16.50;54.00
29007;DHT22;16104;48.642;9.008;2024-02-15T18:45:21;16.40;54.10
29007;DHT22;16104;48.642;9.008;2024-02-15T18:50:17;16.30;54.30
29007;DHT22;16104;48.642;9.008;2024-02-15T18:55:14;16.20;54.40
29007;DHT22;16104;48.642;9.008;2024-02-15T19:00:14;16.10;54.60
29007;DHT22;16104;48.642;9.008;2024-02-15T19:05:09;16.00;54.60
29007;DHT22;16104;48.642;9.008;2024-02-15T19:10:13;15.90;54.70
29007;DHT22;16104;48.642;9.008;2024-02-15T19:15:08;15.80;54.80
29007;DHT22;16104;48.642;9.008;2024-02-15T19:20:05;15.70;54.90
29007;DHT22;16104;48.642;9.008;2024-02-15T19:25:04;15.60;55.00
29007;DHT22;16104;48.642;9.008;2024-02-15T19:30:00;15.60;55.30
29007;DHT22;16104;48.642;9.008;2024-02-15T19:34:55;15.50;55.30
29007;DHT22;16104;48.642;9.008;2024-02-15T19:39:51;15.50;55.40
29007;DHT22;16104;48.642;9.008;2024-02-15T19:44:47;15.40;55.60
29007;DHT22;16104;48.642;9.008;2024-02-15T19:49:42;15.40;55.50
29007;DHT22;16104;48.642;9.008;2024-02-15T19:54:39;15.30;55.70
29007;DHT22;16104;48.642;9.008;2024-02-15T19:59:34;15.30;56.60
29007;DHT22;16104;48.642;9.008;2024-02-15T20:04:30;15.20;56.00
29007;DHT22;16104;48.642;9.008;2024-02-15T20:09:30;15.20;56.10
29007;DHT22;16104;48.642;9.008;2024-02-15T20:14:26;15.10;56.30
29007;DHT22;16104;48.642;9.008;2024-02-15T20:19:23;15.00;56.30
29007;DHT22;16104;48.642;9.008;2024-02-15T20:24:21;15.00;56.30
29007;DHT22;16104;48.642;9.008;2024-02-15T20:29:18;14.90;56.20
29007;DHT22;16104;48.642;9.008;2024-02-15T20:34:14;14.90;56.20
29007;DHT22;16104;48.642;9.008;2024-02-15T20:39:10;14.80;56.20
29007;DHT22;16104;48.642;9.008;2024-02-15T20:44:06;14.80;56.30
29007;DHT22;16104;48.642;9.008;2024-02-15T20:49:04;14.80;56.30
29007;DHT22;16104;48.642;9.008;2024-02-15T20:53:59;14.70;56.30
29007;DHT22;16104;48.642;9.008;2024-02-15T20:58:55;14.70;56.30
29007;DHT22;16104;48.642;9.008;2024-02-15T21:03:51;14.60;56.50
29007;DHT22;16104;48.642;9.008;2024-02-15T21:08:53;14.50;56.50
29007;DHT22;16104;48.642;9.008;2024-02-15T21:13:51;14.50;56.60
29007;DHT22;16104;48.642;9.008;2024-02-15T21:18:48;14.40;56.60
29007;DHT22;16104;48.642;9.008;2024-02-15T21:23:44;14.40;56.60
29007;DHT22;16104;48.642;9.008;2024-02-15T21:28:39;14.30;56.70
29007;DHT22;16104;48.642;9.008;2024-02-15T21:33:39;14.30;56.80
29007;DHT22;16104;48.642;9.008;2024-02-15T21:38:35;14.20;56.90
29007;DHT22;16104;48.642;9.008;2024-02-15T21:43:31;14.10;56.90
29007;DHT22;16104;48.642;9.008;2024-02-15T21:48:28;14.10;57.10
29007;DHT22;16104;48.642;9.008;2024-02-15T21:53:24;14.00;57.20
29007;DHT22;16104;48.642;9.008;2024-02-15T21:58:20;14.00;57.30
29007;DHT22;16104;48.642;9.008;2024-02-15T22:03:15;13.90;57.50
29007;DHT22;16104;48.642;9.008;2024-02-15T22:08:11;13.80;57.60
29007;DHT22;16104;48.642;9.008;2024-02-15T22:13:09;13.80;57.70
29007;DHT22;16104;48.642;9.008;2024-02-15T22:18:05;13.70;57.60
29007;DHT22;16104;48.642;9.008;2024-02-15T22:23:01;13.70;57.70
29007;DHT22;16104;48.642;9.008;2024-02-15T22:27:57;13.60;57.60
29007;DHT22;16104;48.642;9.008;2024-02-15T22:32:53;13.60;57.50
29007;DHT22;16104;48.642;9.008;2024-02-15T22:37:50;13.60;57.60
29007;DHT22;16104;48.642;9.008;2024-02-15T22:42:46;13.50;57.50
29007;DHT22;16104;48.642;9.008;2024-02-15T22:47:41;13.50;57.50
29007;DHT22;16104;48.642;9.008;2024-02-15T22:52:38;13.50;57.50
29007;DHT22;16104;48.642;9.008;2024-02-15T22:57:34;13.50;57.50
29007;DHT22;16104;48.642;9.008;2024-02-15T23:02:30;13.50;57.50
29007;DHT22;16104;48.642;9.008;2024-02-15T23:07:25;13.50;57.50
29007;DHT22;16104;48.642;9.008;2024-02-15T23:12:20;13.50;57.50
29007;DHT22;16104;48.642;9.008;2024-02-15T23:17:16;13.50;57.60
29007;DHT22;16104;48.642;9.008;2024-02-15T23:22:12;13.40;57.50
29007;DHT22;16104;48.642;9.008;2024-02-15T23:27:08;13.40;57.60
29007;DHT22;16104;48.642;9.008;2024-02-15T23:32:04;13.40;57.50
29007;DHT22;16104;48.642;9.008;2024-02-15T23:37:00;13.40;57.50
29007;DHT22;16104;48.642;9.008;2024-02-15T23:42:14;13.40;57.50
29007;DHT22;16104;48.642;9.008;2024-02-15T23:47:10;13.30;57.40
29007;DHT22;16104;48.642;9.008;2024-02-15T23:52:05;13.30;57.40
29007;DHT22;16104;48.642;9.008;2024-02-15T23:57:04;13.30;57.30
